Time;durP1;ratioP1;P1;durP2;ratioP2;P2;SDS_P1;SDS_P2;PMS_P1;PMS_P2;Temp;Humidity;BMP_temperature;BMP_pressure;BME280_temperature;BME280_humidity;BME280_pressure;Samples;Min_cycle;Max_cycle;Signal;HPM_P1;HPM_P2
2023/01/30 00:00:35;;;;;;;2.80;2.60;;;;;;;;;;5057744;28;20029;-22
2023/01/30 00:03:01;;;;;;;3.22;3.03;;;;;;;;;;5057680;28;20056;-21
2023/01/30 00:05:27;;;;;;;3.45;3.15;;;;;;;;;;5057543;28;20053;-21
2023/01/30 00:07:53;;;;;;;3.05;2.78;;;;;;;;;;5057687;28;20090;-21
2023/01/30 00:10:19;;;;;;;2.92;2.72;;;;;;;;;;5057877;28;20087;-21
2023/01/30 00:12:45;;;;;;;3.22;3.00;;;;;;;;;;5058023;28;20032;-21
2023/01/30 00:15:11;;;;;;;3.05;2.85;;;;;;;;;;5057491;28;20021;-22
2023/01/30 00:17:38;;;;;;;3.13;2.92;;;;;;;;;;5057660;28;20024;-22
2023/01/30 00:20:04;;;;;;;2.85;2.72;;;;;;;;;;5057451;28;20321;-21
2023/01/30 00:22:30;;;;;;;2.60;2.40;;;;;;;;;;5057325;28;20029;-21
2023/01/30 00:24:56;;;;;;;2.88;2.63;;;;;;;;;;5057675;28;20029;-23
2023/01/30 00:27:22;;;;;;;3.00;2.80;;;;;;;;;;5057271;28;20053;-22
2023/01/30 00:29:48;;;;;;;2.35;2.25;;;;;;;;;;5057238;28;20025;-22
2023/01/30 00:32:15;;;;;;;3.42;3.13;;;;;;;;;;5057399;28;20017;-21
2023/01/30 00:34:41;;;;;;;2.70;2.50;;;;;;;;;;5057195;28;20094;-24
2023/01/30 00:37:07;;;;;;;3.00;2.70;;;;;;;;;;5057367;28;20033;-21
2023/01/30 00:39:33;;;;;;;3.10;2.85;;;;;;;;;;5056919;28;20033;-22
2023/01/30 00:47:28;;;;;;;2.85;2.65;;;;;;;;;;5056953;28;20102;-23
2023/01/30 00:49:54;;;;;;;3.20;2.90;;;;;;;;;;5056889;28;20140;-21
2023/01/30 00:52:20;;;;;;;3.55;3.28;;;;;;;;;;5056703;28;20033;-22
2023/01/30 00:54:47;;;;;;;2.78;2.63;;;;;;;;;;5057076;28;20025;-22
2023/01/30 00:57:13;;;;;;;3.47;3.28;;;;;;;;;;5057015;28;20372;-21
2023/01/30 00:59:39;;;;;;;3.00;2.80;;;;;;;;;;5056877;28;20114;-21
2023/01/30 01:02:05;;;;;;;2.47;2.38;;;;;;;;;;5056583;28;20029;-22
2023/01/30 01:04:41;;;;;;;3.13;2.92;;;;;;;;;;5056610;28;20140;-21
2023/01/30 01:07:08;;;;;;;2.55;2.35;;;;;;;;;;5056881;28;20032;-22
2023/01/30 01:09:34;;;;;;;2.65;2.47;;;;;;;;;;5056513;28;20460;-23
2023/01/30 01:12:00;;;;;;;2.60;2.40;;;;;;;;;;5056376;28;20036;-23
2023/01/30 01:14:27;;;;;;;2.80;2.60;;;;;;;;;;5056328;28;20094;-21
2023/01/30 01:16:53;;;;;;;3.00;2.80;;;;;;;;;;5056622;28;20407;-22
2023/01/30 01:19:19;;;;;;;2.67;2.47;;;;;;;;;;5056765;28;20071;-22
2023/01/30 01:21:45;;;;;;;2.78;2.60;;;;;;;;;;5038754;28;20024;-21
2023/01/30 01:24:12;;;;;;;2.55;2.35;;;;;;;;;;5056458;28;20039;-22
2023/01/30 01:26:38;;;;;;;2.13;2.03;;;;;;;;;;5056468;28;20025;-21
2023/01/30 01:29:05;;;;;;;2.72;2.55;;;;;;;;;;5056427;28;20411;-22
2023/01/30 01:31:31;;;;;;;3.20;3.00;;;;;;;;;;5038506;28;20055;-22
2023/01/30 01:33:57;;;;;;;3.35;3.10;;;;;;;;;;5056036;28;20040;-21
2023/01/30 01:36:23;;;;;;;2.63;2.47;;;;;;;;;;5056059;28;20147;-21
2023/01/30 01:38:49;;;;;;;3.00;2.80;;;;;;;;;;5056127;28;20351;-21
2023/01/30 01:41:16;;;;;;;3.28;3.08;;;;;;;;;;5055936;28;20021;-21
2023/01/30 01:43:57;;;;;;;3.72;3.33;;;;;;;;;;5056313;28;20029;-21
2023/01/30 01:46:26;;;;;;;2.50;2.33;;;;;;;;;;5056081;28;20014;-21
2023/01/30 01:48:54;;;;;;;3.38;3.17;;;;;;;;;;5038189;28;20040;-21
2023/01/30 01:51:25;;;;;;;4.57;3.00;;;;;;;;;;5056232;28;20036;-21
2023/01/30 01:54:00;;;;;;;2.88;2.67;;;;;;;;;;5055702;28;20027;-24
2023/01/30 01:56:27;;;;;;;3.03;2.78;;;;;;;;;;5055935;28;20102;-22
2023/01/30 01:59:01;;;;;;;3.15;2.85;;;;;;;;;;5056038;28;20044;-22
2023/01/30 02:01:27;;;;;;;2.83;2.63;;;;;;;;;;5056090;28;20070;-27
2023/01/30 02:03:56;;;;;;;3.20;3.00;;;;;;;;;;5055339;28;20471;-24
2023/01/30 02:06:22;;;;;;;3.28;3.08;;;;;;;;;;5055423;28;20040;-21
2023/01/30 02:08:52;;;;;;;4.38;3.13;;;;;;;;;;5055388;28;20407;-21
2023/01/30 02:11:26;;;;;;;3.05;2.85;;;;;;;;;;5055601;28;20091;-21
2023/01/30 02:13:52;;;;;;;2.78;2.58;;;;;;;;;;5055519;28;20416;-23
2023/01/30 02:16:18;;;;;;;3.15;2.53;;;;;;;;;;5055417;28;20036;-21
2023/01/30 02:18:46;;;;;;;2.70;2.50;;;;;;;;;;5055056;28;20086;-21
2023/01/30 02:21:30;;;;;;;2.70;2.55;;;;;;;;;;5055099;28;20033;-21
2023/01/30 02:24:06;;;;;;;2.85;2.65;;;;;;;;;;5055105;28;20090;-23
2023/01/30 02:26:41;;;;;;;3.60;3.30;;;;;;;;;;5055014;28;20043;-21
2023/01/30 02:29:30;;;;;;;3.33;3.03;;;;;;;;;;5055293;28;20036;-22
2023/01/30 02:32:05;;;;;;;5.07;2.95;;;;;;;;;;5054829;28;20549;-21
2023/01/30 02:34:34;;;;;;;2.65;2.45;;;;;;;;;;5054955;28;20032;-26
2023/01/30 02:37:07;;;;;;;3.60;3.40;;;;;;;;;;5055164;28;20045;-23
2023/01/30 02:39:52;;;;;;;3.38;3.10;;;;;;;;;;5055333;28;20407;-21
2023/01/30 02:42:29;;;;;;;3.15;2.85;;;;;;;;;;5054950;28;20029;-22
2023/01/30 02:45:01;;;;;;;3.13;2.83;;;;;;;;;;5055072;28;20017;-22
2023/01/30 02:47:33;;;;;;;3.88;2.60;;;;;;;;;;5054714;28;20048;-22
2023/01/30 02:50:19;;;;;;;2.90;2.63;;;;;;;;;;5054984;28;20036;-22
2023/01/30 02:52:46;;;;;;;3.08;2.85;;;;;;;;;;5054675;28;20032;-22
2023/01/30 02:55:23;;;;;;;2.85;2.65;;;;;;;;;;5055174;28;20437;-21
2023/01/30 02:57:49;;;;;;;2.60;2.47;;;;;;;;;;5054835;28;20029;-22
2023/01/30 03:00:21;;;;;;;2.97;2.70;;;;;;;;;;5054811;28;20021;-21
2023/01/30 03:03:06;;;;;;;3.33;3.05;;;;;;;;;;5055047;28;20033;-22
2023/01/30 03:05:47;;;;;;;2.90;2.70;;;;;;;;;;5054311;28;20372;-21
2023/01/30 03:08:13;;;;;;;;;;;;;;;;;;5054846;28;20029;-21
2023/01/30 03:10:46;;;;;;;2.85;2.65;;;;;;;;;;5054720;28;19905;-21
2023/01/30 03:13:19;;;;;;;3.60;2.80;;;;;;;;;;5054364;28;20122;-22
2023/01/30 03:15:49;;;;;;;2.97;2.78;;;;;;;;;;5054412;28;20037;-23
2023/01/30 03:18:16;;;;;;;3.22;3.03;;;;;;;;;;5054650;28;20360;-21
2023/01/30 03:20:42;;;;;;;3.35;2.58;;;;;;;;;;5054404;28;20029;-21
2023/01/30 03:23:08;;;;;;;2.90;2.70;;;;;;;;;;5054285;28;20044;-21
2023/01/30 03:25:35;;;;;;;4.65;2.63;;;;;;;;;;5054866;28;20025;-21
2023/01/30 03:28:02;;;;;;;2.15;2.05;;;;;;;;;;5054311;28;20029;-22
2023/01/30 03:30:28;;;;;;;2.63;2.42;;;;;;;;;;5057729;28;20344;-21
2023/01/30 03:32:54;;;;;;;2.53;2.33;;;;;;;;;;5058622;28;20349;-21
2023/01/30 03:35:20;;;;;;;2.50;2.40;;;;;;;;;;5058540;28;20032;-22
2023/01/30 03:37:47;;;;;;;2.33;2.13;;;;;;;;;;5058160;28;20033;-21
2023/01/30 03:40:14;;;;;;;2.80;2.45;;;;;;;;;;5058182;28;20045;-21
2023/01/30 03:42:40;;;;;;;2.67;2.47;;;;;;;;;;5058377;28;20017;-22
2023/01/30 03:45:07;;;;;;;4.95;3.20;;;;;;;;;;5058384;28;20091;-22
2023/01/30 03:47:33;;;;;;;2.45;2.30;;;;;;;;;;5058100;28;20021;-21
2023/01/30 03:49:59;;;;;;;2.95;2.75;;;;;;;;;;5058001;28;20032;-21
2023/01/30 03:52:26;;;;;;;2.42;2.22;;;;;;;;;;5057888;28;20428;-21
2023/01/30 03:54:52;;;;;;;2.33;2.15;;;;;;;;;;5058009;28;20028;-22
2023/01/30 03:57:18;;;;;;;2.88;2.67;;;;;;;;;;5057903;28;20082;-22
2023/01/30 03:59:44;;;;;;;2.58;2.38;;;;;;;;;;5058000;28;20036;-21
2023/01/30 04:02:10;;;;;;;2.47;2.38;;;;;;;;;;5058010;28;20021;-21
2023/01/30 04:04:36;;;;;;;2.67;2.47;;;;;;;;;;5057705;28;20123;-21
2023/01/30 04:07:04;;;;;;;2.50;2.40;;;;;;;;;;5058355;28;20072;-21
2023/01/30 04:09:30;;;;;;;3.03;2.78;;;;;;;;;;5057881;28;20047;-22
2023/01/30 04:11:56;;;;;;;3.08;2.15;;;;;;;;;;5057787;28;20083;-21
2023/01/30 04:14:22;;;;;;;2.75;2.30;;;;;;;;;;5058109;28;20025;-30
2023/01/30 04:16:48;;;;;;;2.70;2.50;;;;;;;;;;5057516;28;20455;-21
2023/01/30 04:19:15;;;;;;;2.72;2.50;;;;;;;;;;5057655;28;20090;-22
2023/01/30 04:21:41;;;;;;;2.75;2.28;;;;;;;;;;5057330;28;20033;-22
2023/01/30 04:24:07;;;;;;;3.03;2.83;;;;;;;;;;5057597;28;20021;-22
2023/01/30 04:26:33;;;;;;;2.47;2.33;;;;;;;;;;5057374;28;20100;-22
2023/01/30 04:28:59;;;;;;;2.40;2.00;;;;;;;;;;5057305;28;20033;-22
2023/01/30 04:31:25;;;;;;;2.15;2.05;;;;;;;;;;5039657;28;20178;-21
2023/01/30 04:33:52;;;;;;;1.88;1.77;;;;;;;;;;5057378;28;20155;-21
2023/01/30 04:36:18;;;;;;;3.28;2.45;;;;;;;;;;5057163;28;20029;-21
2023/01/30 04:38:44;;;;;;;2.95;2.30;;;;;;;;;;5057034;28;20112;-22
2023/01/30 04:41:10;;;;;;;2.40;2.20;;;;;;;;;;5056828;28;20365;-22
2023/01/30 04:43:36;;;;;;;2.45;2.22;;;;;;;;;;5057062;28;20021;-22
2023/01/30 04:46:03;;;;;;;2.40;2.20;;;;;;;;;;5057214;28;20025;-23
2023/01/30 04:48:29;;;;;;;2.22;2.00;;;;;;;;;;5056830;28;20337;-21
2023/01/30 04:50:56;;;;;;;2.58;2.38;;;;;;;;;;5057040;28;20052;-22
2023/01/30 04:53:23;;;;;;;2.80;2.63;;;;;;;;;;5056989;28;20037;-21
2023/01/30 04:55:49;;;;;;;3.42;3.13;;;;;;;;;;5057199;28;20352;-21
2023/01/30 04:58:16;;;;;;;2.13;2.03;;;;;;;;;;5039009;28;20460;-22
2023/01/30 05:00:42;;;;;;;2.88;2.25;;;;;;;;;;5056927;28;20063;-22
2023/01/30 05:03:08;;;;;;;3.22;2.97;;;;;;;;;;5056977;28;20017;-23
2023/01/30 05:05:34;;;;;;;3.42;2.67;;;;;;;;;;5056348;28;20052;-22
2023/01/30 05:08:00;;;;;;;5.38;2.10;;;;;;;;;;5056458;28;20104;-22
2023/01/30 05:10:27;;;;;;;2.55;2.15;;;;;;;;;;5056229;28;20029;-22
2023/01/30 05:12:53;;;;;;;2.92;2.15;;;;;;;;;;5056086;28;20048;-22
2023/01/30 05:15:19;;;;;;;2.05;1.90;;;;;;;;;;5056260;28;20108;-22
2023/01/30 05:17:45;;;;;;;4.45;2.17;;;;;;;;;;5056112;28;20036;-21
2023/01/30 05:20:12;;;;;;;1.98;1.85;;;;;;;;;;5056444;28;20041;-21
2023/01/30 05:22:38;;;;;;;3.08;2.13;;;;;;;;;;5056177;28;20017;-21
2023/01/30 05:25:05;;;;;;;3.92;1.85;;;;;;;;;;5056075;28;20048;-22
2023/01/30 05:27:31;;;;;;;2.53;2.30;;;;;;;;;;5056325;28;20052;-21
2023/01/30 05:29:57;;;;;;;4.97;2.53;;;;;;;;;;5055976;28;20359;-21
2023/01/30 05:32:24;;;;;;;2.15;1.92;;;;;;;;;;5056124;28;20160;-22
2023/01/30 05:34:50;;;;;;;1.88;1.77;;;;;;;;;;5056180;28;20502;-22
2023/01/30 05:37:16;;;;;;;5.78;2.20;;;;;;;;;;5056383;28;20048;-22
2023/01/30 05:39:42;;;;;;;4.40;2.50;;;;;;;;;;5055648;28;20044;-21
2023/01/30 05:42:08;;;;;;;2.42;2.10;;;;;;;;;;5055556;28;20029;-21
2023/01/30 05:44:35;;;;;;;6.22;2.40;;;;;;;;;;5055752;28;20029;-22
2023/01/30 05:47:01;;;;;;;2.22;2.00;;;;;;;;;;5055852;28;20075;-22
2023/01/30 05:49:27;;;;;;;14.30;2.40;;;;;;;;;;5055632;28;20029;-21
2023/01/30 05:51:53;;;;;;;2.70;2.17;;;;;;;;;;5036953;28;20033;-21
2023/01/30 05:54:19;;;;;;;2.97;2.17;;;;;;;;;;5055928;28;20547;-22
2023/01/30 05:56:48;;;;;;;4.88;2.30;;;;;;;;;;5055375;28;20020;-21
2023/01/30 05:59:15;;;;;;;4.03;2.20;;;;;;;;;;5055159;28;20440;-22
2023/01/30 06:04:24;;;;;;;8.55;2.92;;;;;;;;;;4953200;26;20387;-26
2023/01/30 06:06:50;;;;;;;2.92;2.13;;;;;;;;;;5035201;28;20026;-25
2023/01/30 06:09:16;;;;;;;4.30;2.28;;;;;;;;;;5035465;28;20025;-24
2023/01/30 06:11:42;;;;;;;4.00;2.05;;;;;;;;;;5034437;28;20025;-24
2023/01/30 06:14:08;;;;;;;6.22;2.10;;;;;;;;;;5015771;28;20435;-23
2023/01/30 06:16:35;;;;;;;6.38;2.60;;;;;;;;;;5016067;28;20060;-23
2023/01/30 06:19:01;;;;;;;4.28;2.33;;;;;;;;;;5015604;28;20044;-23
2023/01/30 06:21:27;;;;;;;9.00;3.03;;;;;;;;;;5015869;28;20022;-24
2023/01/30 06:23:53;;;;;;;5.60;3.75;;;;;;;;;;5015215;28;20022;-24
2023/01/30 06:26:19;;;;;;;7.88;2.17;;;;;;;;;;5015749;28;20058;-23
2023/01/30 06:28:45;;;;;;;4.43;3.03;;;;;;;;;;5015098;28;20035;-23
2023/01/30 06:31:11;;;;;;;9.27;2.45;;;;;;;;;;5015188;28;20022;-23
2023/01/30 06:33:38;;;;;;;8.98;2.33;;;;;;;;;;5014950;28;20026;-24
2023/01/30 06:36:04;;;;;;;16.17;2.83;;;;;;;;;;5015728;28;20037;-23
2023/01/30 06:38:30;;;;;;;16.00;2.95;;;;;;;;;;5014930;28;20025;-23
2023/01/30 06:40:56;;;;;;;8.02;2.50;;;;;;;;;;5015327;28;20056;-24
2023/01/30 06:43:22;;;;;;;26.02;3.80;;;;;;;;;;5015030;28;20056;-24
2023/01/30 06:45:49;;;;;;;8.32;2.58;;;;;;;;;;5014885;28;20364;-24
2023/01/30 06:48:15;;;;;;;7.78;2.70;;;;;;;;;;5015183;28;20447;-24
2023/01/30 06:50:41;;;;;;;10.82;3.78;;;;;;;;;;5014929;28;20416;-24
2023/01/30 06:53:08;;;;;;;12.15;3.00;;;;;;;;;;5014739;28;20029;-23
2023/01/30 06:55:34;;;;;;;13.93;3.13;;;;;;;;;;5014748;28;20441;-24
2023/01/30 06:58:07;;;;;;;8.95;3.00;;;;;;;;;;5014623;28;20133;-24
2023/01/30 07:00:33;;;;;;;8.85;2.30;;;;;;;;;;5014750;28;20033;-24
2023/01/30 07:02:59;;;;;;;3.33;2.00;;;;;;;;;;4997008;28;20042;-24
2023/01/30 07:05:27;;;;;;;14.90;3.75;;;;;;;;;;5014470;28;20030;-23
2023/01/30 07:07:53;;;;;;;7.95;2.55;;;;;;;;;;5014805;28;20022;-24
2023/01/30 07:10:19;;;;;;;10.65;3.60;;;;;;;;;;5014561;28;20022;-23
2023/01/30 07:12:47;;;;;;;22.10;3.58;;;;;;;;;;4997474;28;20040;-24
2023/01/30 07:15:13;;;;;;;9.10;2.88;;;;;;;;;;5014876;28;20088;-24
2023/01/30 07:17:40;;;;;;;11.70;2.40;;;;;;;;;;5014752;28;20029;-23
2023/01/30 07:20:07;;;;;;;8.75;2.70;;;;;;;;;;5014487;28;20372;-27
2023/01/30 07:22:33;;;;;;;9.32;2.80;;;;;;;;;;5014914;28;20096;-24
2023/01/30 07:24:59;;;;;;;10.05;3.05;;;;;;;;;;5014564;28;20060;-24
2023/01/30 07:27:26;;;;;;;13.70;3.85;;;;;;;;;;5014506;28;20022;-24
2023/01/30 07:29:52;;;;;;;8.60;2.85;;;;;;;;;;5014394;28;20516;-23
2023/01/30 07:32:19;;;;;;;9.93;2.53;;;;;;;;;;5014393;28;20026;-24
2023/01/30 07:34:45;;;;;;;8.48;2.70;;;;;;;;;;5014457;28;20049;-23
2023/01/30 07:37:12;;;;;;;4.88;1.92;;;;;;;;;;5014655;28;20057;-24
2023/01/30 07:39:38;;;;;;;6.43;2.50;;;;;;;;;;5014286;28;20109;-24
2023/01/30 07:42:04;;;;;;;7.55;2.35;;;;;;;;;;5014677;28;20025;-24
2023/01/30 07:44:32;;;;;;;8.65;2.88;;;;;;;;;;4997602;28;20058;-24
2023/01/30 07:46:58;;;;;;;4.65;2.40;;;;;;;;;;5014613;28;20100;-24
2023/01/30 07:49:24;;;;;;;9.50;2.78;;;;;;;;;;5014770;28;20065;-24
2023/01/30 07:51:51;;;;;;;8.00;3.17;;;;;;;;;;4997617;28;20030;-24
2023/01/30 07:54:17;;;;;;;14.98;2.42;;;;;;;;;;5014817;28;20105;-24
2023/01/30 07:56:43;;;;;;;11.98;2.58;;;;;;;;;;5014269;28;20364;-23
2023/01/30 07:59:10;;;;;;;8.25;2.40;;;;;;;;;;5014164;28;20453;-25
2023/01/30 08:01:36;;;;;;;7.13;2.45;;;;;;;;;;5014187;28;20030;-26
2023/01/30 08:04:03;;;;;;;6.10;2.17;;;;;;;;;;5013942;28;20372;-24
2023/01/30 08:06:29;;;;;;;8.38;2.88;;;;;;;;;;5013899;28;20030;-24
2023/01/30 08:08:55;;;;;;;3.47;2.33;;;;;;;;;;4996843;28;20026;-24
2023/01/30 08:11:21;;;;;;;6.95;2.47;;;;;;;;;;5014016;28;20022;-23
2023/01/30 08:13:48;;;;;;;15.60;3.78;;;;;;;;;;5014224;28;20038;-24
2023/01/30 08:16:14;;;;;;;5.75;2.35;;;;;;;;;;5016517;28;20065;-24
2023/01/30 08:18:40;;;;;;;6.65;2.45;;;;;;;;;;5017881;28;20076;-24
2023/01/30 08:21:06;;;;;;;7.45;2.72;;;;;;;;;;5017385;28;20101;-24
2023/01/30 08:23:33;;;;;;;5.65;2.50;;;;;;;;;;5017531;28;20104;-24
2023/01/30 08:26:00;;;;;;;6.38;2.53;;;;;;;;;;5017587;28;20026;-24
2023/01/30 08:28:27;;;;;;;7.97;2.65;;;;;;;;;;5017283;28;20022;-24
2023/01/30 08:30:53;;;;;;;5.15;2.28;;;;;;;;;;4999931;28;20092;-24
2023/01/30 08:33:20;;;;;;;7.50;2.30;;;;;;;;;;4999935;28;20453;-24
2023/01/30 08:35:46;;;;;;;12.52;4.85;;;;;;;;;;5017048;28;20408;-24
2023/01/30 08:38:13;;;;;;;3.28;2.30;;;;;;;;;;5017266;28;20107;-24
2023/01/30 08:40:39;;;;;;;6.68;3.78;;;;;;;;;;5017022;28;20434;-23
2023/01/30 08:43:05;;;;;;;7.72;3.42;;;;;;;;;;5017281;28;20101;-23
2023/01/30 08:45:32;;;;;;;9.13;2.70;;;;;;;;;;5016813;28;20028;-23
2023/01/30 08:48:02;;;;;;;6.45;3.13;;;;;;;;;;5016837;28;20022;-24
2023/01/30 08:50:28;;;;;;;2.95;2.50;;;;;;;;;;5017009;28;20045;-24
2023/01/30 08:52:55;;;;;;;4.47;2.42;;;;;;;;;;5016944;28;20030;-23
2023/01/30 08:55:21;;;;;;;3.45;2.20;;;;;;;;;;5017089;28;20101;-24
2023/01/30 08:57:48;;;;;;;5.25;2.58;;;;;;;;;;5017049;28;20435;-23
2023/01/30 09:00:15;;;;;;;11.68;3.55;;;;;;;;;;5016510;28;20092;-24
2023/01/30 09:02:41;;;;;;;9.35;3.25;;;;;;;;;;5016620;28;20049;-24
2023/01/30 09:05:09;;;;;;;12.07;3.28;;;;;;;;;;5016538;28;20022;-24
2023/01/30 09:07:35;;;;;;;8.65;3.17;;;;;;;;;;5016343;28;20037;-23
2023/01/30 09:10:02;;;;;;;4.68;2.72;;;;;;;;;;4999262;28;20428;-24
2023/01/30 09:12:28;;;;;;;14.25;3.25;;;;;;;;;;5016631;28;20072;-23
2023/01/30 09:14:56;;;;;;;10.43;4.38;;;;;;;;;;5016589;28;20030;-23
2023/01/30 09:17:23;;;;;;;12.18;3.20;;;;;;;;;;5016452;28;20041;-24
2023/01/30 09:19:49;;;;;;;18.25;4.05;;;;;;;;;;5016345;28;20087;-24
2023/01/30 09:22:16;;;;;;;24.98;3.83;;;;;;;;;;5016212;28;20034;-24
2023/01/30 09:24:42;;;;;;;14.32;3.80;;;;;;;;;;4999047;28;20033;-24
2023/01/30 09:27:08;;;;;;;12.70;3.30;;;;;;;;;;5015158;28;20030;-24
2023/01/30 09:29:34;;;;;;;15.27;4.22;;;;;;;;;;5016248;28;20075;-24
2023/01/30 09:32:00;;;;;;;8.60;4.20;;;;;;;;;;5016142;28;20531;-24
2023/01/30 09:34:27;;;;;;;9.55;3.33;;;;;;;;;;5016371;28;20026;-29
2023/01/30 09:37:01;;;;;;;14.60;3.72;;;;;;;;;;5016056;28;20125;-24
2023/01/30 09:39:28;;;;;;;4.35;2.97;;;;;;;;;;4998637;28;20065;-24
2023/01/30 09:42:13;;;;;;;15.15;3.30;;;;;;;;;;4998755;28;20467;-24
2023/01/30 09:44:45;;;;;;;20.50;3.55;;;;;;;;;;5016090;28;20373;-24
2023/01/30 09:47:11;;;;;;;9.23;3.53;;;;;;;;;;5016122;28;20044;-24
2023/01/30 09:49:57;;;;;;;7.40;3.20;;;;;;;;;;5015998;28;20048;-24
2023/01/30 09:52:27;;;;;;;8.73;3.20;;;;;;;;;;5015733;28;20033;-24
2023/01/30 09:54:58;;;;;;;5.47;3.95;;;;;;;;;;5016144;28;20356;-24
2023/01/30 09:57:25;;;;;;;7.07;2.90;;;;;;;;;;5016084;28;20109;-24
2023/01/30 09:59:55;;;;;;;2.95;2.65;;;;;;;;;;5015524;28;20041;-24
2023/01/30 10:02:30;;;;;;;7.50;2.40;;;;;;;;;;5015530;28;20048;-24
2023/01/30 10:04:58;;;;;;;9.30;3.20;;;;;;;;;;5015938;28;20025;-24
2023/01/30 10:07:27;;;;;;;8.38;4.70;;;;;;;;;;5016081;28;20041;-24
2023/01/30 10:10:12;;;;;;;19.17;5.55;;;;;;;;;;5015629;28;20341;-24
2023/01/30 10:12:50;;;;;;;10.68;2.78;;;;;;;;;;5015286;28;20441;-24
2023/01/30 10:15:19;;;;;;;15.75;3.38;;;;;;;;;;5015251;28;20077;-24
2023/01/30 10:18:21;;;;;;;13.77;3.40;;;;;;;;;;5015526;28;20060;-24
2023/01/30 10:21:05;;;;;;;19.08;3.15;;;;;;;;;;4917368;29;20032;-24
2023/01/30 10:23:46;;;;;;;43.70;5.45;;;;;;;;;;5007899;28;20034;-24
2023/01/30 10:26:15;;;;;;;31.45;4.65;;;;;;;;;;5015306;28;20096;-24
2023/01/30 10:28:49;;;;;;;40.97;5.72;;;;;;;;;;5015439;28;20113;-24
2023/01/30 10:31:19;;;;;;;23.58;4.13;;;;;;;;;;4997961;28;20038;-24
2023/01/30 10:34:06;;;;;;;18.13;3.58;;;;;;;;;;5015721;28;20026;-25
2023/01/30 10:36:46;;;;;;;18.73;3.92;;;;;;;;;;5015059;28;20344;-25
2023/01/30 10:39:20;;;;;;;15.05;3.65;;;;;;;;;;5014494;28;20037;-25
2023/01/30 10:41:58;;;;;;;22.88;3.88;;;;;;;;;;5015054;28;20026;-24
2023/01/30 10:44:24;;;;;;;14.02;3.28;;;;;;;;;;5015395;28;20026;-25
2023/01/30 10:46:51;;;;;;;15.43;3.35;;;;;;;;;;5014978;28;20033;-25
2023/01/30 10:49:17;;;;;;;11.40;2.95;;;;;;;;;;5014852;28;20132;-25
2023/01/30 10:52:15;;;;;;;7.57;2.88;;;;;;;;;;5015008;28;20026;-24
2023/01/30 10:55:05;;;;;;;9.98;2.88;;;;;;;;;;4961512;28;20049;-25
2023/01/30 10:57:33;;;;;;;15.38;3.05;;;;;;;;;;5014843;28;20528;-24
2023/01/30 11:00:26;;;;;;;14.73;3.25;;;;;;;;;;5014650;28;20096;-25
2023/01/30 11:03:12;;;;;;;18.45;3.58;;;;;;;;;;5010450;28;20358;-25
2023/01/30 11:06:00;;;;;;;16.35;3.78;;;;;;;;;;4998270;28;20038;-25
2023/01/30 11:08:32;;;;;;;15.88;3.60;;;;;;;;;;5014743;28;20114;-24
2023/01/30 11:10:58;;;;;;;11.75;3.40;;;;;;;;;;5015487;28;20050;-24
2023/01/30 11:13:32;;;;;;;11.32;3.05;;;;;;;;;;5014366;28;20026;-25
2023/01/30 11:15:59;;;;;;;9.35;2.90;;;;;;;;;;5014510;28;20030;-25
2023/01/30 11:18:26;;;;;;;16.02;3.50;;;;;;;;;;5014602;28;20364;-24
2023/01/30 11:21:01;;;;;;;17.50;4.10;;;;;;;;;;4997242;28;20022;-24
2023/01/30 11:23:40;;;;;;;9.13;2.92;;;;;;;;;;5014320;28;20473;-25
2023/01/30 11:26:07;;;;;;;15.52;3.42;;;;;;;;;;5014561;28;20026;-23
2023/01/30 11:28:40;;;;;;;9.75;3.95;;;;;;;;;;5014605;28;20030;-23
2023/01/30 11:31:26;;;;;;;10.95;3.53;;;;;;;;;;5014794;28;20029;-24
2023/01/30 11:34:00;;;;;;;6.20;3.10;;;;;;;;;;5014143;28;20026;-23
2023/01/30 11:36:28;;;;;;;17.38;4.13;;;;;;;;;;4997132;28;20542;-23
2023/01/30 11:38:57;;;;;;;17.02;3.58;;;;;;;;;;5014414;28;20030;-23
2023/01/30 11:41:23;;;;;;;10.07;3.42;;;;;;;;;;5014345;28;20522;-24
2023/01/30 11:43:50;;;;;;;8.02;3.42;;;;;;;;;;5014967;28;20129;-26
2023/01/30 11:46:18;;;;;;;23.48;3.95;;;;;;;;;;5014301;28;20037;-24
2023/01/30 11:48:47;;;;;;;19.88;3.05;;;;;;;;;;5014380;28;20034;-24
2023/01/30 11:51:13;;;;;;;8.65;3.42;;;;;;;;;;5017372;28;20353;-23
2023/01/30 11:53:41;;;;;;;21.33;4.90;;;;;;;;;;5018003;28;20384;-23
2023/01/30 11:56:26;;;;;;;8.30;2.90;;;;;;;;;;5018024;28;20464;-23
2023/01/30 11:58:59;;;;;;;7.00;2.90;;;;;;;;;;5017978;28;20042;-23
2023/01/30 12:01:27;;;;;;;8.93;3.55;;;;;;;;;;5018117;28;20437;-23
2023/01/30 12:03:54;;;;;;;11.77;3.17;;;;;;;;;;5017584;28;20057;-23
2023/01/30 12:06:24;;;;;;;9.68;2.92;;;;;;;;;;5018021;28;20109;-24
2023/01/30 12:08:54;;;;;;;6.88;3.40;;;;;;;;;;5018074;28;20125;-23
2023/01/30 12:11:27;;;;;;;6.20;3.03;;;;;;;;;;5018352;28;20045;-23
2023/01/30 12:13:57;;;;;;;16.60;4.25;;;;;;;;;;5000703;28;20033;-23
2023/01/30 12:16:32;;;;;;;17.48;4.32;;;;;;;;;;5017543;28;20061;-23
2023/01/30 12:19:04;;;;;;;8.98;3.92;;;;;;;;;;5017536;28;20025;-23
2023/01/30 12:21:47;;;;;;;5.57;2.58;;;;;;;;;;5017437;28;20112;-24
2023/01/30 12:24:19;;;;;;;9.23;3.40;;;;;;;;;;5000016;28;20022;-23
2023/01/30 12:26:47;;;;;;;12.20;4.43;;;;;;;;;;5017677;28;20022;-24
2023/01/30 12:29:20;;;;;;;10.05;3.80;;;;;;;;;;5017365;28;20410;-24
2023/01/30 12:31:49;;;;;;;12.90;4.78;;;;;;;;;;4999990;28;20461;-24
2023/01/30 12:34:16;;;;;;;6.38;3.42;;;;;;;;;;5017646;28;20036;-23
2023/01/30 12:36:49;;;;;;;17.08;3.83;;;;;;;;;;5017290;28;20488;-24
2023/01/30 12:39:25;;;;;;;17.67;4.60;;;;;;;;;;5017255;28;20361;-26
2023/01/30 12:41:54;;;;;;;27.10;3.70;;;;;;;;;;5017370;28;20085;-24
2023/01/30 12:44:23;;;;;;;11.75;2.67;;;;;;;;;;5017347;28;20098;-23
2023/01/30 12:46:49;;;;;;;18.17;3.33;;;;;;;;;;5016919;28;20096;-24
2023/01/30 12:49:29;;;;;;;13.80;3.22;;;;;;;;;;5017047;28;20097;-24
2023/01/30 12:52:14;;;;;;;22.45;4.82;;;;;;;;;;5017284;28;20030;-24
2023/01/30 12:55:02;;;;;;;12.60;3.70;;;;;;;;;;5017125;28;20373;-24
2023/01/30 12:57:50;;;;;;;13.30;3.60;;;;;;;;;;4998743;28;20445;-24
2023/01/30 13:00:25;;;;;;;21.13;3.67;;;;;;;;;;5016618;28;20044;-24
2023/01/30 13:03:01;;;;;;;28.42;4.40;;;;;;;;;;5016530;28;20068;-24
2023/01/30 13:05:36;;;;;;;20.05;4.97;;;;;;;;;;5016556;28;20025;-24
2023/01/30 13:08:29;;;;;;;25.50;4.28;;;;;;;;;;5016661;28;20034;-24
2023/01/30 13:10:55;;;;;;;23.95;4.68;;;;;;;;;;5016549;28;20474;-24
2023/01/30 13:13:21;;;;;;;10.98;3.63;;;;;;;;;;5016437;28;20432;-24
2023/01/30 13:15:48;;;;;;;16.02;4.90;;;;;;;;;;5016840;28;20330;-24
2023/01/30 13:18:31;;;;;;;14.13;4.35;;;;;;;;;;4999062;28;20487;-24
2023/01/30 13:21:03;;;;;;;13.30;3.55;;;;;;;;;;5016691;28;20038;-24
2023/01/30 13:23:59;;;;;;;27.42;4.18;;;;;;;;;;5016291;28;20033;-24
2023/01/30 13:26:31;;;;;;;13.05;3.90;;;;;;;;;;4995778;28;20044;-24
2023/01/30 13:29:01;;;;;;;23.70;4.75;;;;;;;;;;5016614;28;20052;-24
2023/01/30 13:31:27;;;;;;;;;;;;;;;;;;5016568;28;20041;-24
2023/01/30 13:34:01;;;;;;;20.90;4.15;;;;;;;;;;5016376;28;19905;-24
2023/01/30 13:36:32;;;;;;;16.73;3.60;;;;;;;;;;5016302;28;20062;-24
2023/01/30 13:38:58;;;;;;;;;;;;;;;;;;5016948;28;20037;-24
2023/01/30 13:41:25;;;;;;;14.23;3.25;;;;;;;;;;4998882;28;19909;-24
2023/01/30 13:43:52;;;;;;;14.93;4.35;;;;;;;;;;5015965;28;20453;-24
2023/01/30 13:46:26;;;;;;;15.25;3.65;;;;;;;;;;5016461;28;20022;-24
2023/01/30 13:48:55;;;;;;;21.10;4.25;;;;;;;;;;5015931;28;20068;-24
2023/01/30 13:51:34;;;;;;;11.88;3.85;;;;;;;;;;5016060;28;20393;-24
2023/01/30 13:54:09;;;;;;;17.38;3.72;;;;;;;;;;5015713;28;20022;-24
2023/01/30 13:56:45;;;;;;;13.02;3.88;;;;;;;;;;5015710;28;20049;-24
2023/01/30 13:59:17;;;;;;;19.55;3.28;;;;;;;;;;5016028;28;20092;-24
2023/01/30 14:02:02;;;;;;;26.45;3.72;;;;;;;;;;5015451;28;20044;-24
2023/01/30 14:04:40;;;;;;;11.65;3.83;;;;;;;;;;5015821;28;20423;-24
2023/01/30 14:07:12;;;;;;;9.75;3.67;;;;;;;;;;5015519;28;20125;-24
2023/01/30 14:09:41;;;;;;;12.60;3.80;;;;;;;;;;5015493;28;20045;-24
2023/01/30 14:12:15;;;;;;;13.18;3.75;;;;;;;;;;4997797;28;20112;-24
2023/01/30 14:14:43;;;;;;;22.02;4.15;;;;;;;;;;4998193;28;20034;-24
2023/01/30 14:17:16;;;;;;;12.35;3.85;;;;;;;;;;5015388;28;20026;-24
2023/01/30 14:19:42;;;;;;;18.15;3.40;;;;;;;;;;4998041;28;20037;-24
2023/01/30 14:22:23;;;;;;;17.05;4.10;;;;;;;;;;5015251;28;20028;-24
2023/01/30 14:25:07;;;;;;;17.55;3.60;;;;;;;;;;5015626;28;20080;-24
2023/01/30 14:27:33;;;;;;;14.15;4.13;;;;;;;;;;5015201;28;20030;-24
2023/01/30 14:29:59;;;;;;;7.55;2.75;;;;;;;;;;5015241;28;20041;-24
2023/01/30 14:32:55;;;;;;;16.20;3.58;;;;;;;;;;5015371;28;20084;-24
2023/01/30 14:35:22;;;;;;;12.82;2.95;;;;;;;;;;4994595;28;20469;-24
2023/01/30 14:37:49;;;;;;;16.85;4.88;;;;;;;;;;4997716;28;20061;-24
2023/01/30 14:40:22;;;;;;;12.80;3.30;;;;;;;;;;5015246;28;20026;-24
2023/01/30 14:43:23;;;;;;;9.90;3.45;;;;;;;;;;4997805;28;20104;-24
2023/01/30 14:45:51;;;;;;;18.40;3.60;;;;;;;;;;4916876;29;20432;-24
2023/01/30 14:48:20;;;;;;;17.27;4.30;;;;;;;;;;4996529;28;20041;-24
2023/01/30 14:50:46;;;;;;;6.82;3.70;;;;;;;;;;5015232;28;20033;-24
2023/01/30 14:53:13;;;;;;;11.63;3.60;;;;;;;;;;5014904;28;20457;-25
2023/01/30 14:55:39;;;;;;;15.15;4.20;;;;;;;;;;5015104;28;20021;-25
2023/01/30 14:58:14;;;;;;;7.97;3.25;;;;;;;;;;5015103;28;20092;-25
2023/01/30 15:00:40;;;;;;;5.95;3.47;;;;;;;;;;5014813;28;20026;-25
2023/01/30 15:03:17;;;;;;;21.95;5.53;;;;;;;;;;5014392;28;20061;-25